sensor_id;sensor_type;location;lat;lon;timestamp;P1;durP1;ratioP1;P2;durP2;ratioP2
60993;SDS011;47611;54.932;73.338;2022-09-12T00:01:28;7.22;;;3.00;;
60993;SDS011;47611;54.932;73.338;2022-09-12T00:03:55;4.28;;;2.40;;
60993;SDS011;47611;54.932;73.338;2022-09-12T00:06:24;4.63;;;2.05;;
60993;SDS011;47611;54.932;73.338;2022-09-12T00:08:52;6.45;;;3.00;;
60993;SDS011;47611;54.932;73.338;2022-09-12T00:11:20;5.57;;;2.60;;
60993;SDS011;47611;54.932;73.338;2022-09-12T00:13:56;7.22;;;3.05;;
60993;SDS011;47611;54.932;73.338;2022-09-12T00:16:22;5.28;;;2.50;;
60993;SDS011;47611;54.932;73.338;2022-09-12T00:18:53;5.75;;;2.53;;
60993;SDS011;47611;54.932;73.338;2022-09-12T00:21:19;5.20;;;2.90;;
60993;SDS011;47611;54.932;73.338;2022-09-12T00:23:46;5.95;;;2.58;;
60993;SDS011;47611;54.932;73.338;2022-09-12T00:26:12;5.57;;;2.60;;
60993;SDS011;47611;54.932;73.338;2022-09-12T00:28:42;5.20;;;2.50;;
60993;SDS011;47611;54.932;73.338;2022-09-12T00:31:21;4.07;;;2.50;;
60993;SDS011;47611;54.932;73.338;2022-09-12T00:33:54;3.80;;;2.08;;
60993;SDS011;47611;54.932;73.338;2022-09-12T00:36:21;4.70;;;2.47;;
60993;SDS011;47611;54.932;73.338;2022-09-12T00:38:48;5.50;;;2.13;;
60993;SDS011;47611;54.932;73.338;2022-09-12T00:41:29;6.88;;;3.10;;
60993;SDS011;47611;54.932;73.338;2022-09-12T00:43:56;20.35;;;5.90;;
60993;SDS011;47611;54.932;73.338;2022-09-12T00:46:37;13.85;;;5.82;;
60993;SDS011;47611;54.932;73.338;2022-09-12T00:51:48;15.70;;;7.10;;
60993;SDS011;47611;54.932;73.338;2022-09-12T00:54:16;12.80;;;5.80;;
60993;SDS011;47611;54.932;73.338;2022-09-12T00:59:25;29.58;;;6.40;;
60993;SDS011;47611;54.932;73.338;2022-09-12T01:01:52;16.13;;;7.57;;
60993;SDS011;47611;54.932;73.338;2022-09-12T01:04:19;14.40;;;4.60;;
60993;SDS011;47611;54.932;73.338;2022-09-12T01:06:46;13.40;;;6.47;;
60993;SDS011;47611;54.932;73.338;2022-09-12T01:09:23;16.00;;;8.18;;
60993;SDS011;47611;54.932;73.338;2022-09-12T01:11:50;15.02;;;8.43;;
60993;SDS011;47611;54.932;73.338;2022-09-12T01:14:23;14.05;;;8.48;;
60993;SDS011;47611;54.932;73.338;2022-09-12T01:16:49;21.13;;;8.30;;
60993;SDS011;47611;54.932;73.338;2022-09-12T01:32:35;29.50;;;10.43;;
60993;SDS011;47611;54.932;73.338;2022-09-12T01:37:37;19.30;;;8.75;;
60993;SDS011;47611;54.932;73.338;2022-09-12T01:40:15;21.45;;;10.48;;
60993;SDS011;47611;54.932;73.338;2022-09-12T01:42:53;18.80;;;9.88;;
60993;SDS011;47611;54.932;73.338;2022-09-12T01:45:31;19.67;;;10.82;;
60993;SDS011;47611;54.932;73.338;2022-09-12T01:48:03;22.13;;;11.80;;
60993;SDS011;47611;54.932;73.338;2022-09-12T01:50:31;24.80;;;10.77;;
60993;SDS011;47611;54.932;73.338;2022-09-12T01:53:05;21.25;;;10.02;;
60993;SDS011;47611;54.932;73.338;2022-09-12T01:55:33;20.85;;;9.75;;
60993;SDS011;47611;54.932;73.338;2022-09-12T02:00:36;27.52;;;10.18;;
60993;SDS011;47611;54.932;73.338;2022-09-12T02:03:07;30.38;;;8.93;;
60993;SDS011;47611;54.932;73.338;2022-09-12T02:05:35;21.75;;;6.57;;
60993;SDS011;47611;54.932;73.338;2022-09-12T02:08:16;15.10;;;4.45;;
60993;SDS011;47611;54.932;73.338;2022-09-12T02:10:50;15.85;;;4.30;;
60993;SDS011;47611;54.932;73.338;2022-09-12T02:13:22;19.00;;;5.82;;
60993;SDS011;47611;54.932;73.338;2022-09-12T02:15:57;23.15;;;5.75;;
60993;SDS011;47611;54.932;73.338;2022-09-12T02:18:28;14.98;;;5.50;;
60993;SDS011;47611;54.932;73.338;2022-09-12T02:20:55;22.10;;;6.57;;
60993;SDS011;47611;54.932;73.338;2022-09-12T02:23:22;19.38;;;5.07;;
60993;SDS011;47611;54.932;73.338;2022-09-12T02:25:52;20.77;;;5.63;;
60993;SDS011;47611;54.932;73.338;2022-09-12T02:28:26;21.85;;;5.90;;
60993;SDS011;47611;54.932;73.338;2022-09-12T02:36:35;22.65;;;5.70;;
60993;SDS011;47611;54.932;73.338;2022-09-12T02:39:04;19.70;;;6.55;;
60993;SDS011;47611;54.932;73.338;2022-09-12T02:41:35;15.90;;;5.00;;
60993;SDS011;47611;54.932;73.338;2022-09-12T02:44:01;23.65;;;4.68;;
60993;SDS011;47611;54.932;73.338;2022-09-12T02:46:40;14.10;;;4.75;;
60993;SDS011;47611;54.932;73.338;2022-09-12T02:49:12;17.33;;;5.30;;
60993;SDS011;47611;54.932;73.338;2022-09-12T02:51:38;13.93;;;5.10;;
60993;SDS011;47611;54.932;73.338;2022-09-12T02:54:14;14.88;;;5.00;;
60993;SDS011;47611;54.932;73.338;2022-09-12T02:56:51;21.60;;;6.18;;
60993;SDS011;47611;54.932;73.338;2022-09-12T02:59:18;17.58;;;6.47;;
60993;SDS011;47611;54.932;73.338;2022-09-12T03:04:45;16.92;;;5.30;;
60993;SDS011;47611;54.932;73.338;2022-09-12T03:12:23;12.55;;;5.28;;
60993;SDS011;47611;54.932;73.338;2022-09-12T03:22:53;20.35;;;5.90;;
60993;SDS011;47611;54.932;73.338;2022-09-12T03:25:21;14.10;;;5.28;;
60993;SDS011;47611;54.932;73.338;2022-09-12T03:27:56;7.50;;;4.07;;
60993;SDS011;47611;54.932;73.338;2022-09-12T03:30:27;10.90;;;4.13;;
60993;SDS011;47611;54.932;73.338;2022-09-12T03:32:53;11.10;;;5.10;;
60993;SDS011;47611;54.932;73.338;2022-09-12T03:35:29;6.68;;;3.22;;
60993;SDS011;47611;54.932;73.338;2022-09-12T03:38:04;15.43;;;5.00;;
60993;SDS011;47611;54.932;73.338;2022-09-12T03:40:36;10.55;;;3.60;;
60993;SDS011;47611;54.932;73.338;2022-09-12T03:43:09;14.02;;;4.13;;
60993;SDS011;47611;54.932;73.338;2022-09-12T03:45:35;8.90;;;3.33;;
60993;SDS011;47611;54.932;73.338;2022-09-12T03:48:02;6.32;;;3.13;;
60993;SDS011;47611;54.932;73.338;2022-09-12T03:50:28;8.93;;;2.95;;
60993;SDS011;47611;54.932;73.338;2022-09-12T03:52:54;8.13;;;3.42;;
60993;SDS011;47611;54.932;73.338;2022-09-12T03:55:20;13.50;;;4.50;;
60993;SDS011;47611;54.932;73.338;2022-09-12T03:57:46;8.02;;;3.92;;
60993;SDS011;47611;54.932;73.338;2022-09-12T04:00:14;15.50;;;4.00;;
60993;SDS011;47611;54.932;73.338;2022-09-12T04:02:55;8.10;;;3.58;;
60993;SDS011;47611;54.932;73.338;2022-09-12T04:05:23;9.27;;;3.00;;
60993;SDS011;47611;54.932;73.338;2022-09-12T04:07:49;11.25;;;3.78;;
60993;SDS011;47611;54.932;73.338;2022-09-12T04:10:14;13.07;;;3.35;;
60993;SDS011;47611;54.932;73.338;2022-09-12T04:12:40;9.50;;;3.22;;
60993;SDS011;47611;54.932;73.338;2022-09-12T04:15:06;11.90;;;3.30;;
60993;SDS011;47611;54.932;73.338;2022-09-12T04:17:38;9.48;;;2.88;;
60993;SDS011;47611;54.932;73.338;2022-09-12T04:20:14;7.63;;;3.20;;
60993;SDS011;47611;54.932;73.338;2022-09-12T04:22:42;5.28;;;2.80;;
60993;SDS011;47611;54.932;73.338;2022-09-12T04:25:08;9.73;;;3.78;;
60993;SDS011;47611;54.932;73.338;2022-09-12T04:27:38;4.50;;;1.90;;
60993;SDS011;47611;54.932;73.338;2022-09-12T04:30:14;6.63;;;2.50;;
60993;SDS011;47611;54.932;73.338;2022-09-12T04:32:40;17.58;;;4.05;;
60993;SDS011;47611;54.932;73.338;2022-09-12T04:35:06;5.38;;;2.50;;
60993;SDS011;47611;54.932;73.338;2022-09-12T04:37:32;8.00;;;2.22;;
60993;SDS011;47611;54.932;73.338;2022-09-12T04:40:02;11.98;;;3.50;;
60993;SDS011;47611;54.932;73.338;2022-09-12T04:42:28;10.40;;;2.83;;
60993;SDS011;47611;54.932;73.338;2022-09-12T04:44:54;4.63;;;2.10;;
60993;SDS011;47611;54.932;73.338;2022-09-12T04:47:30;7.45;;;2.15;;
60993;SDS011;47611;54.932;73.338;2022-09-12T04:49:56;4.82;;;2.25;;
60993;SDS011;47611;54.932;73.338;2022-09-12T04:52:21;3.22;;;1.80;;
60993;SDS011;47611;54.932;73.338;2022-09-12T04:54:47;5.15;;;2.08;;
60993;SDS011;47611;54.932;73.338;2022-09-12T04:57:13;4.88;;;1.50;;
60993;SDS011;47611;54.932;73.338;2022-09-12T04:59:39;3.90;;;1.60;;
60993;SDS011;47611;54.932;73.338;2022-09-12T05:02:05;9.52;;;2.45;;
60993;SDS011;47611;54.932;73.338;2022-09-12T05:04:31;11.98;;;2.42;;
60993;SDS011;47611;54.932;73.338;2022-09-12T05:06:57;6.35;;;2.33;;
60993;SDS011;47611;54.932;73.338;2022-09-12T05:09:23;9.88;;;3.20;;
60993;SDS011;47611;54.932;73.338;2022-09-12T05:11:49;5.45;;;2.33;;
60993;SDS011;47611;54.932;73.338;2022-09-12T05:14:20;6.65;;;2.40;;
60993;SDS011;47611;54.932;73.338;2022-09-12T05:16:46;7.28;;;3.38;;
60993;SDS011;47611;54.932;73.338;2022-09-12T05:19:12;4.65;;;2.38;;
60993;SDS011;47611;54.932;73.338;2022-09-12T05:21:38;4.22;;;2.08;;
60993;SDS011;47611;54.932;73.338;2022-09-12T05:24:11;11.15;;;2.45;;
60993;SDS011;47611;54.932;73.338;2022-09-12T05:26:42;5.93;;;2.05;;
60993;SDS011;47611;54.932;73.338;2022-09-12T05:29:08;4.43;;;1.80;;
60993;SDS011;47611;54.932;73.338;2022-09-12T05:31:40;8.93;;;2.80;;
60993;SDS011;47611;54.932;73.338;2022-09-12T05:34:11;5.90;;;2.55;;
60993;SDS011;47611;54.932;73.338;2022-09-12T05:36:41;4.10;;;2.05;;
60993;SDS011;47611;54.932;73.338;2022-09-12T05:39:07;4.35;;;1.63;;
60993;SDS011;47611;54.932;73.338;2022-09-12T05:41:33;5.60;;;2.00;;
60993;SDS011;47611;54.932;73.338;2022-09-12T05:44:01;4.45;;;1.98;;
60993;SDS011;47611;54.932;73.338;2022-09-12T05:46:29;3.30;;;1.70;;
60993;SDS011;47611;54.932;73.338;2022-09-12T05:48:56;4.28;;;1.80;;
60993;SDS011;47611;54.932;73.338;2022-09-12T05:51:30;4.03;;;1.50;;
60993;SDS011;47611;54.932;73.338;2022-09-12T05:53:58;4.38;;;1.80;;
60993;SDS011;47611;54.932;73.338;2022-09-12T05:56:25;4.40;;;1.58;;
60993;SDS011;47611;54.932;73.338;2022-09-12T05:58:58;7.50;;;2.10;;
60993;SDS011;47611;54.932;73.338;2022-09-12T06:01:25;5.00;;;2.20;;
60993;SDS011;47611;54.932;73.338;2022-09-12T06:04:03;5.05;;;2.03;;
60993;SDS011;47611;54.932;73.338;2022-09-12T06:06:29;5.93;;;2.10;;
60993;SDS011;47611;54.932;73.338;2022-09-12T06:08:59;6.28;;;2.50;;
60993;SDS011;47611;54.932;73.338;2022-09-12T06:11:26;10.98;;;4.38;;
60993;SDS011;47611;54.932;73.338;2022-09-12T06:13:54;7.78;;;2.33;;
60993;SDS011;47611;54.932;73.338;2022-09-12T06:16:29;5.25;;;2.40;;
60993;SDS011;47611;54.932;73.338;2022-09-12T06:18:56;5.75;;;1.80;;
60993;SDS011;47611;54.932;73.338;2022-09-12T06:21:27;2.78;;;1.85;;
60993;SDS011;47611;54.932;73.338;2022-09-12T06:23:55;5.22;;;2.25;;
60993;SDS011;47611;54.932;73.338;2022-09-12T06:26:28;4.38;;;2.00;;
60993;SDS011;47611;54.932;73.338;2022-09-12T06:28:54;3.65;;;1.80;;
60993;SDS011;47611;54.932;73.338;2022-09-12T06:31:25;5.28;;;2.17;;
60993;SDS011;47611;54.932;73.338;2022-09-12T06:34:02;6.60;;;2.20;;
60993;SDS011;47611;54.932;73.338;2022-09-12T06:36:36;3.72;;;1.90;;
60993;SDS011;47611;54.932;73.338;2022-09-12T06:39:06;19.02;;;5.07;;
60993;SDS011;47611;54.932;73.338;2022-09-12T06:41:37;4.25;;;1.80;;
60993;SDS011;47611;54.932;73.338;2022-09-12T06:44:04;8.40;;;2.50;;
60993;SDS011;47611;54.932;73.338;2022-09-12T06:46:31;4.38;;;2.00;;
60993;SDS011;47611;54.932;73.338;2022-09-12T06:48:58;3.70;;;2.03;;
60993;SDS011;47611;54.932;73.338;2022-09-12T06:51:25;5.18;;;2.50;;
60993;SDS011;47611;54.932;73.338;2022-09-12T06:53:53;4.10;;;2.15;;
60993;SDS011;47611;54.932;73.338;2022-09-12T06:56:21;5.97;;;2.67;;
60993;SDS011;47611;54.932;73.338;2022-09-12T06:58:47;14.57;;;5.63;;
60993;SDS011;47611;54.932;73.338;2022-09-12T07:01:18;8.85;;;3.40;;
60993;SDS011;47611;54.932;73.338;2022-09-12T07:03:55;5.85;;;2.30;;
60993;SDS011;47611;54.932;73.338;2022-09-12T07:06:22;7.18;;;2.13;;
60993;SDS011;47611;54.932;73.338;2022-09-12T07:08:49;14.45;;;6.38;;
60993;SDS011;47611;54.932;73.338;2022-09-12T07:11:18;3.92;;;2.20;;
60993;SDS011;47611;54.932;73.338;2022-09-12T07:13:45;2.92;;;1.70;;
60993;SDS011;47611;54.932;73.338;2022-09-12T07:16:17;3.65;;;2.20;;
60993;SDS011;47611;54.932;73.338;2022-09-12T07:18:43;3.78;;;2.00;;
60993;SDS011;47611;54.932;73.338;2022-09-12T07:21:11;11.60;;;2.85;;
60993;SDS011;47611;54.932;73.338;2022-09-12T07:23:37;14.50;;;2.65;;
60993;SDS011;47611;54.932;73.338;2022-09-12T07:26:04;13.00;;;2.95;;
60993;SDS011;47611;54.932;73.338;2022-09-12T07:28:35;27.48;;;3.40;;
60993;SDS011;47611;54.932;73.338;2022-09-12T07:31:08;24.27;;;3.95;;
60993;SDS011;47611;54.932;73.338;2022-09-12T07:33:35;22.40;;;3.53;;
60993;SDS011;47611;54.932;73.338;2022-09-12T07:36:08;11.38;;;2.10;;
60993;SDS011;47611;54.932;73.338;2022-09-12T07:38:38;10.95;;;2.63;;
60993;SDS011;47611;54.932;73.338;2022-09-12T07:41:19;5.95;;;2.20;;
60993;SDS011;47611;54.932;73.338;2022-09-12T07:43:46;3.17;;;2.08;;
60993;SDS011;47611;54.932;73.338;2022-09-12T07:46:16;3.75;;;1.95;;
60993;SDS011;47611;54.932;73.338;2022-09-12T07:48:43;4.43;;;1.85;;
60993;SDS011;47611;54.932;73.338;2022-09-12T07:51:12;5.45;;;2.22;;
60993;SDS011;47611;54.932;73.338;2022-09-12T07:53:38;5.72;;;2.17;;
60993;SDS011;47611;54.932;73.338;2022-09-12T07:56:05;4.15;;;2.22;;
60993;SDS011;47611;54.932;73.338;2022-09-12T07:58:39;3.95;;;1.85;;
60993;SDS011;47611;54.932;73.338;2022-09-12T08:03:37;11.13;;;2.45;;
60993;SDS011;47611;54.932;73.338;2022-09-12T08:06:04;11.48;;;2.17;;
60993;SDS011;47611;54.932;73.338;2022-09-12T08:08:30;6.50;;;2.03;;
60993;SDS011;47611;54.932;73.338;2022-09-12T08:11:00;6.07;;;2.08;;
60993;SDS011;47611;54.932;73.338;2022-09-12T08:13:26;5.93;;;2.05;;
60993;SDS011;47611;54.932;73.338;2022-09-12T08:15:56;6.32;;;2.20;;
60993;SDS011;47611;54.932;73.338;2022-09-12T08:18:27;4.97;;;1.98;;
60993;SDS011;47611;54.932;73.338;2022-09-12T08:20:59;11.90;;;2.72;;
60993;SDS011;47611;54.932;73.338;2022-09-12T08:23:35;12.07;;;3.60;;
60993;SDS011;47611;54.932;73.338;2022-09-12T08:26:02;8.90;;;2.60;;
60993;SDS011;47611;54.932;73.338;2022-09-12T08:28:38;8.10;;;2.45;;
60993;SDS011;47611;54.932;73.338;2022-09-12T08:31:06;10.38;;;3.10;;
60993;SDS011;47611;54.932;73.338;2022-09-12T08:33:33;5.32;;;2.20;;
60993;SDS011;47611;54.932;73.338;2022-09-12T08:36:05;11.35;;;2.90;;
60993;SDS011;47611;54.932;73.338;2022-09-12T08:38:32;7.85;;;1.90;;
60993;SDS011;47611;54.932;73.338;2022-09-12T08:46:36;18.20;;;3.75;;
60993;SDS011;47611;54.932;73.338;2022-09-12T08:49:03;12.93;;;3.17;;
60993;SDS011;47611;54.932;73.338;2022-09-12T08:51:40;13.80;;;3.92;;
60993;SDS011;47611;54.932;73.338;2022-09-12T08:54:18;13.10;;;3.60;;
60993;SDS011;47611;54.932;73.338;2022-09-12T08:56:56;15.30;;;3.35;;
60993;SDS011;47611;54.932;73.338;2022-09-12T08:59:23;10.38;;;2.75;;
60993;SDS011;47611;54.932;73.338;2022-09-12T09:01:50;14.68;;;3.10;;
60993;SDS011;47611;54.932;73.338;2022-09-12T09:04:28;18.15;;;3.13;;
60993;SDS011;47611;54.932;73.338;2022-09-12T09:17:37;9.65;;;2.13;;
60993;SDS011;47611;54.932;73.338;2022-09-12T09:22:54;7.40;;;2.00;;
60993;SDS011;47611;54.932;73.338;2022-09-12T09:25:25;13.40;;;2.30;;
60993;SDS011;47611;54.932;73.338;2022-09-12T09:28:06;6.65;;;1.73;;
60993;SDS011;47611;54.932;73.338;2022-09-12T09:30:36;8.90;;;2.30;;
60993;SDS011;47611;54.932;73.338;2022-09-12T09:33:02;7.68;;;2.33;;
60993;SDS011;47611;54.932;73.338;2022-09-12T09:35:45;9.05;;;2.60;;
60993;SDS011;47611;54.932;73.338;2022-09-12T09:38:30;7.93;;;2.60;;
60993;SDS011;47611;54.932;73.338;2022-09-12T09:43:24;8.50;;;2.70;;
60993;SDS011;47611;54.932;73.338;2022-09-12T09:45:59;7.85;;;2.40;;
60993;SDS011;47611;54.932;73.338;2022-09-12T09:48:31;4.43;;;2.38;;
60993;SDS011;47611;54.932;73.338;2022-09-12T09:50:59;4.78;;;1.85;;
60993;SDS011;47611;54.932;73.338;2022-09-12T09:56:12;8.32;;;2.75;;
60993;SDS011;47611;54.932;73.338;2022-09-12T09:58:40;9.48;;;2.90;;
60993;SDS011;47611;54.932;73.338;2022-09-12T10:01:15;4.45;;;2.10;;
60993;SDS011;47611;54.932;73.338;2022-09-12T10:08:48;7.43;;;2.47;;
60993;SDS011;47611;54.932;73.338;2022-09-12T10:13:50;32.10;;;5.00;;
60993;SDS011;47611;54.932;73.338;2022-09-12T10:16:27;18.23;;;4.30;;
60993;SDS011;47611;54.932;73.338;2022-09-12T10:18:55;23.02;;;4.28;;
60993;SDS011;47611;54.932;73.338;2022-09-12T10:21:30;24.90;;;4.43;;
60993;SDS011;47611;54.932;73.338;2022-09-12T10:24:00;7.03;;;2.90;;
60993;SDS011;47611;54.932;73.338;2022-09-12T10:26:31;3.55;;;1.98;;
60993;SDS011;47611;54.932;73.338;2022-09-12T10:29:14;5.75;;;2.90;;
60993;SDS011;47611;54.932;73.338;2022-09-12T10:31:46;4.68;;;2.28;;
60993;SDS011;47611;54.932;73.338;2022-09-12T10:34:21;21.45;;;5.82;;
60993;SDS011;47611;54.932;73.338;2022-09-12T10:36:51;12.50;;;2.22;;
60993;SDS011;47611;54.932;73.338;2022-09-12T10:39:18;6.03;;;1.58;;
60993;SDS011;47611;54.932;73.338;2022-09-12T10:41:44;5.53;;;2.15;;
60993;SDS011;47611;54.932;73.338;2022-09-12T10:44:14;9.55;;;2.60;;
60993;SDS011;47611;54.932;73.338;2022-09-12T10:46:41;12.80;;;3.13;;
60993;SDS011;47611;54.932;73.338;2022-09-12T10:49:18;29.73;;;4.85;;
60993;SDS011;47611;54.932;73.338;2022-09-12T10:51:49;12.57;;;4.18;;
60993;SDS011;47611;54.932;73.338;2022-09-12T10:54:16;14.90;;;4.15;;
60993;SDS011;47611;54.932;73.338;2022-09-12T10:59:54;10.00;;;3.15;;
60993;SDS011;47611;54.932;73.338;2022-09-12T11:02:27;8.32;;;2.70;;
60993;SDS011;47611;54.932;73.338;2022-09-12T11:05:01;12.43;;;3.83;;
60993;SDS011;47611;54.932;73.338;2022-09-12T11:15:34;9.80;;;2.60;;
60993;SDS011;47611;54.932;73.338;2022-09-12T11:23:32;7.30;;;2.90;;
60993;SDS011;47611;54.932;73.338;2022-09-12T11:26:07;6.93;;;2.80;;
60993;SDS011;47611;54.932;73.338;2022-09-12T11:34:13;15.27;;;5.95;;
60993;SDS011;47611;54.932;73.338;2022-09-12T11:36:48;8.27;;;3.70;;
60993;SDS011;47611;54.932;73.338;2022-09-12T11:39:32;9.13;;;3.10;;
60993;SDS011;47611;54.932;73.338;2022-09-12T11:42:02;14.10;;;3.65;;
60993;SDS011;47611;54.932;73.338;2022-09-12T11:47:04;8.15;;;3.22;;
60993;SDS011;47611;54.932;73.338;2022-09-12T11:49:36;12.25;;;3.72;;
60993;SDS011;47611;54.932;73.338;2022-09-12T11:52:05;18.70;;;4.82;;
60993;SDS011;47611;54.932;73.338;2022-09-12T11:59:36;14.25;;;4.50;;
60993;SDS011;47611;54.932;73.338;2022-09-12T12:02:07;18.05;;;5.68;;
60993;SDS011;47611;54.932;73.338;2022-09-12T12:07:25;12.00;;;4.80;;
60993;SDS011;47611;54.932;73.338;2022-09-12T12:09:53;15.90;;;5.57;;
60993;SDS011;47611;54.932;73.338;2022-09-12T12:12:26;25.73;;;4.72;;
60993;SDS011;47611;54.932;73.338;2022-09-12T12:14:53;12.95;;;4.95;;
60993;SDS011;47611;54.932;73.338;2022-09-12T12:17:30;12.52;;;3.25;;
60993;SDS011;47611;54.932;73.338;2022-09-12T12:20:03;9.68;;;3.88;;
60993;SDS011;47611;54.932;73.338;2022-09-12T12:22:31;10.65;;;3.72;;
60993;SDS011;47611;54.932;73.338;2022-09-12T12:35:41;5.53;;;2.78;;
60993;SDS011;47611;54.932;73.338;2022-09-12T12:43:48;9.55;;;3.17;;
60993;SDS011;47611;54.932;73.338;2022-09-12T12:46:27;9.52;;;3.05;;
60993;SDS011;47611;54.932;73.338;2022-09-12T12:53:52;14.30;;;4.57;;
60993;SDS011;47611;54.932;73.338;2022-09-12T12:59:01;16.33;;;6.75;;
60993;SDS011;47611;54.932;73.338;2022-09-12T13:01:28;19.52;;;7.47;;
60993;SDS011;47611;54.932;73.338;2022-09-12T13:04:10;16.23;;;7.50;;
60993;SDS011;47611;54.932;73.338;2022-09-12T13:06:38;30.50;;;9.70;;
60993;SDS011;47611;54.932;73.338;2022-09-12T13:09:09;22.48;;;9.00;;
60993;SDS011;47611;54.932;73.338;2022-09-12T13:11:44;31.10;;;10.07;;
60993;SDS011;47611;54.932;73.338;2022-09-12T13:16:55;41.10;;;13.00;;
60993;SDS011;47611;54.932;73.338;2022-09-12T13:19:35;39.38;;;15.88;;
60993;SDS011;47611;54.932;73.338;2022-09-12T13:22:03;52.10;;;16.65;;
60993;SDS011;47611;54.932;73.338;2022-09-12T13:24:29;52.03;;;18.98;;
60993;SDS011;47611;54.932;73.338;2022-09-12T13:26:55;71.28;;;24.60;;
60993;SDS011;47611;54.932;73.338;2022-09-12T13:29:29;75.50;;;27.90;;
60993;SDS011;47611;54.932;73.338;2022-09-12T13:31:59;88.82;;;28.80;;
60993;SDS011;47611;54.932;73.338;2022-09-12T13:34:26;99.00;;;33.95;;
60993;SDS011;47611;54.932;73.338;2022-09-12T13:36:56;90.68;;;35.58;;
60993;SDS011;47611;54.932;73.338;2022-09-12T13:45:02;161.20;;;54.40;;
60993;SDS011;47611;54.932;73.338;2022-09-12T13:47:34;151.48;;;56.80;;
60993;SDS011;47611;54.932;73.338;2022-09-12T13:50:02;194.77;;;64.32;;
60993;SDS011;47611;54.932;73.338;2022-09-12T13:52:29;144.10;;;51.80;;
60993;SDS011;47611;54.932;73.338;2022-09-12T13:54:57;137.88;;;50.00;;
60993;SDS011;47611;54.932;73.338;2022-09-12T13:57:34;117.18;;;48.42;;
60993;SDS011;47611;54.932;73.338;2022-09-12T14:00:16;132.48;;;48.60;;
60993;SDS011;47611;54.932;73.338;2022-09-12T14:02:52;132.60;;;47.95;;
60993;SDS011;47611;54.932;73.338;2022-09-12T14:05:38;136.70;;;49.58;;
60993;SDS011;47611;54.932;73.338;2022-09-12T14:08:06;172.77;;;59.35;;
60993;SDS011;47611;54.932;73.338;2022-09-12T14:10:33;186.40;;;66.88;;
60993;SDS011;47611;54.932;73.338;2022-09-12T14:13:10;231.30;;;77.38;;
60993;SDS011;47611;54.932;73.338;2022-09-12T14:15:37;249.15;;;83.70;;
60993;SDS011;47611;54.932;73.338;2022-09-12T14:18:19;253.40;;;90.60;;
60993;SDS011;47611;54.932;73.338;2022-09-12T14:20:46;269.55;;;91.68;;
60993;SDS011;47611;54.932;73.338;2022-09-12T14:23:20;270.98;;;94.90;;
60993;SDS011;47611;54.932;73.338;2022-09-12T14:25:49;284.15;;;100.65;;
60993;SDS011;47611;54.932;73.338;2022-09-12T14:28:15;275.63;;;102.90;;
60993;SDS011;47611;54.932;73.338;2022-09-12T14:30:58;279.25;;;98.13;;
60993;SDS011;47611;54.932;73.338;2022-09-12T14:33:25;270.25;;;99.18;;
60993;SDS011;47611;54.932;73.338;2022-09-12T14:35:52;338.40;;;108.70;;
60993;SDS011;47611;54.932;73.338;2022-09-12T14:38:51;423.98;;;126.43;;
60993;SDS011;47611;54.932;73.338;2022-09-12T14:41:28;415.20;;;121.28;;
60993;SDS011;47611;54.932;73.338;2022-09-12T14:43:58;411.42;;;123.43;;
60993;SDS011;47611;54.932;73.338;2022-09-12T14:46:38;398.48;;;120.50;;
60993;SDS011;47611;54.932;73.338;2022-09-12T14:51:42;340.90;;;112.80;;
60993;SDS011;47611;54.932;73.338;2022-09-12T14:56:56;320.05;;;107.18;;
60993;SDS011;47611;54.932;73.338;2022-09-12T15:04:51;228.80;;;78.03;;
60993;SDS011;47611;54.932;73.338;2022-09-12T15:09:58;218.90;;;73.88;;
60993;SDS011;47611;54.932;73.338;2022-09-12T15:12:34;163.43;;;57.33;;
60993;SDS011;47611;54.932;73.338;2022-09-12T15:15:21;449.92;;;130.88;;
60993;SDS011;47611;54.932;73.338;2022-09-12T15:17:46;460.13;;;134.23;;
60993;SDS011;47611;54.932;73.338;2022-09-12T15:20:12;451.55;;;135.13;;
60993;SDS011;47611;54.932;73.338;2022-09-12T15:22:48;364.52;;;114.20;;
60993;SDS011;47611;54.932;73.338;2022-09-12T15:25:16;343.67;;;107.18;;
60993;SDS011;47611;54.932;73.338;2022-09-12T15:27:52;329.55;;;103.57;;
60993;SDS011;47611;54.932;73.338;2022-09-12T15:30:20;313.35;;;100.07;;
60993;SDS011;47611;54.932;73.338;2022-09-12T15:32:51;265.95;;;87.57;;
60993;SDS011;47611;54.932;73.338;2022-09-12T15:35:18;243.85;;;79.13;;
60993;SDS011;47611;54.932;73.338;2022-09-12T15:37:45;255.32;;;82.28;;
60993;SDS011;47611;54.932;73.338;2022-09-12T15:40:11;244.35;;;78.45;;
60993;SDS011;47611;54.932;73.338;2022-09-12T15:42:42;235.98;;;75.63;;
60993;SDS011;47611;54.932;73.338;2022-09-12T15:45:18;224.00;;;75.20;;
60993;SDS011;47611;54.932;73.338;2022-09-12T15:47:46;241.00;;;78.75;;
60993;SDS011;47611;54.932;73.338;2022-09-12T15:50:12;240.23;;;78.55;;
60993;SDS011;47611;54.932;73.338;2022-09-12T15:52:38;263.45;;;83.03;;
60993;SDS011;47611;54.932;73.338;2022-09-12T15:55:09;307.98;;;100.82;;
60993;SDS011;47611;54.932;73.338;2022-09-12T15:57:37;443.45;;;144.27;;
60993;SDS011;47611;54.932;73.338;2022-09-12T16:00:05;383.02;;;128.45;;
60993;SDS011;47611;54.932;73.338;2022-09-12T16:02:37;329.02;;;116.15;;
60993;SDS011;47611;54.932;73.338;2022-09-12T16:05:03;296.10;;;98.97;;
60993;SDS011;47611;54.932;73.338;2022-09-12T16:07:29;215.88;;;77.82;;
60993;SDS011;47611;54.932;73.338;2022-09-12T16:10:05;214.05;;;68.78;;
60993;SDS011;47611;54.932;73.338;2022-09-12T16:12:31;194.27;;;66.18;;
60993;SDS011;47611;54.932;73.338;2022-09-12T16:14:57;180.80;;;57.78;;
60993;SDS011;47611;54.932;73.338;2022-09-12T16:17:23;150.75;;;51.63;;
60993;SDS011;47611;54.932;73.338;2022-09-12T16:22:40;163.48;;;48.05;;
60993;SDS011;47611;54.932;73.338;2022-09-12T16:25:15;166.13;;;48.58;;
60993;SDS011;47611;54.932;73.338;2022-09-12T16:27:42;192.90;;;56.38;;
60993;SDS011;47611;54.932;73.338;2022-09-12T16:30:08;178.57;;;51.75;;
60993;SDS011;47611;54.932;73.338;2022-09-12T16:32:41;174.50;;;53.00;;
60993;SDS011;47611;54.932;73.338;2022-09-12T16:35:16;213.48;;;60.10;;
60993;SDS011;47611;54.932;73.338;2022-09-12T16:37:41;270.80;;;71.47;;
60993;SDS011;47611;54.932;73.338;2022-09-12T16:40:08;317.90;;;89.10;;
60993;SDS011;47611;54.932;73.338;2022-09-12T16:42:38;330.05;;;91.75;;
60993;SDS011;47611;54.932;73.338;2022-09-12T16:45:04;307.98;;;90.45;;
60993;SDS011;47611;54.932;73.338;2022-09-12T16:47:31;286.73;;;81.13;;
60993;SDS011;47611;54.932;73.338;2022-09-12T16:49:57;303.15;;;88.32;;
60993;SDS011;47611;54.932;73.338;2022-09-12T16:52:34;277.33;;;80.18;;
60993;SDS011;47611;54.932;73.338;2022-09-12T16:55:11;245.43;;;79.07;;
60993;SDS011;47611;54.932;73.338;2022-09-12T16:57:37;236.10;;;78.50;;
60993;SDS011;47611;54.932;73.338;2022-09-12T17:00:13;222.77;;;75.57;;
60993;SDS011;47611;54.932;73.338;2022-09-12T17:02:49;225.40;;;76.22;;
60993;SDS011;47611;54.932;73.338;2022-09-12T17:05:15;233.00;;;78.30;;
60993;SDS011;47611;54.932;73.338;2022-09-12T17:07:51;226.77;;;81.60;;
60993;SDS011;47611;54.932;73.338;2022-09-12T17:10:17;390.92;;;116.05;;
60993;SDS011;47611;54.932;73.338;2022-09-12T17:12:43;375.70;;;118.35;;
60993;SDS011;47611;54.932;73.338;2022-09-12T17:15:13;398.00;;;126.03;;
60993;SDS011;47611;54.932;73.338;2022-09-12T17:17:50;402.98;;;124.45;;